http://www.ohio.gov http://www.dot.state.oh.us
W W W . B U C K E Y E T R A F F I C . O R G

1-SR49 @ SR249 (200000) Status Air Temp Sfc Temp Sub Temp Dew Temp Wind Precip Traffic Updated
Sensor [A]: Atmospheric - 72.9 - - 63.7 8.1 / S - - 5/29/2015 11:51:46 PM
Sensor [0]: SR49 NB Lane Wet - 186.8 - - - - 0 / 9.9 5/29/2015 11:51:46 PM
Sensor [1]: SR 249 EB Lane Wet - 87.8 - - - - 0 / 9.9 5/29/2015 11:51:46 PM
2-SR-309 @ SR-235 (200001) Status Air Temp Sfc Temp Sub Temp Dew Temp Wind Precip Traffic Updated
Sensor [A]: Atmospheric - 72.0 - - 63.7 2.5 / N - - 5/29/2015 11:50:50 PM
Sensor [0]: SR309 EB Dry - 74.3 84.2 - - - - 5/29/2015 11:50:50 PM
Sensor [1]: SR235 SB Dry - 84.2 - - - - - 5/29/2015 11:50:50 PM
3-US24 @ Indiana Line (200002) Status Air Temp Sfc Temp Sub Temp Dew Temp Wind Precip Traffic Updated
Sensor [A]: Atmospheric - 71.8 - - 62.6 7.5 / S - - 5/29/2015 11:51:48 PM
Sensor [0]: EB Driving Trace Moisture - 78.8 78.8 - - - 0 / 9.9 5/29/2015 11:51:48 PM
Sensor [1]: WB Driving Dry - 78.8 - - - - 0 / 9.9 5/29/2015 11:51:48 PM
4-US224 @ SR190 (200003) Status Air Temp Sfc Temp Sub Temp Dew Temp Wind Precip Traffic Updated
Sensor [A]: Atmospheric - 73.8 - - 64.0 8.7 / W - - 5/29/2015 11:50:38 PM
Sensor [0]: Eastbound Driving Lane Dry - 73.4 - - - - 1 / 65.2 5/29/2015 11:50:38 PM
5- US30 @ SR49 North (200004) Status Air Temp Sfc Temp Sub Temp Dew Temp Wind Precip Traffic Updated
Sensor [A]: Atmospheric - 72.1 - - 64.4 5.0 / SE - - 5/29/2015 11:52:19 PM
Sensor [0]: US30 Westbound Driving Dry - 78.8 - - - - 0 / 9.9 5/29/2015 11:52:19 PM
Sensor [1]: US30 Eastbound Driving Dry - 78.8 - - - - 0 / 9.9 5/29/2015 11:52:19 PM
6-US 30/23 @ E. Wyandot Ave. (MM 16.3) (200005) Status Air Temp Sfc Temp Sub Temp Dew Temp Wind Precip Traffic Updated
Sensor [A]: Atmospheric - 74.5 - - 64.9 11.8 / S - - 5/29/2015 11:52:21 PM
Sensor [0]: US23 NB Driving Lane Bridge Deck Dry - 80.6 - - - - 0 / 9.9 5/29/2015 11:52:21 PM
Sensor [1]: US23 NB Passing Lane Bridge Deck Wet - 186.8 - - - - 0 / 9.9 5/29/2015 11:52:21 PM
Sensor [3]: US23 SB Driving Lane Dry - 80.6 - - - - 0 / 9.9 5/29/2015 11:52:21 PM
7-US30 Bypass @ SR4 (200006) Status Air Temp Sfc Temp Sub Temp Dew Temp Wind Precip Traffic Updated
Sensor [A]: Atmospheric - 73.4 - - 65.3 6.8 / S - - 5/29/2015 11:50:39 PM
Sensor [0]: US30 East Bound Driving Lane Dry - 78.6 - - - - 20 / 60.9 5/29/2015 11:50:39 PM
Sensor [1]: US30 West Bound Driving Lane Dry - 78.4 - - - - 80 / 158.4 5/29/2015 11:50:39 PM
8-Huron County Garage (200007) Status Air Temp Sfc Temp Sub Temp Dew Temp Wind Precip Traffic Updated
Sensor [A]: Atmospheric - 73.2 - - 65.5 5.6 / S - - 5/29/2015 11:50:37 PM
Sensor [0]: US250 NB Lane Dry - 80.6 - - - - 0 / 9.9 5/29/2015 11:50:37 PM
Sensor [1]: US250 SB Lane Dry - 80.6 - - - - 0 / 9.9 5/29/2015 11:50:37 PM
9-I77 MM 109 @ Belden Village (200008) Status Air Temp Sfc Temp Sub Temp Dew Temp Wind Precip Traffic Updated
Sensor [A]: Atmospheric - 74.1 - - 64.0 3.7 / SW - - 5/29/2015 11:51:55 PM
Sensor [0]: Ramp Bridge over I-77 Trace Moisture - 86.0 84.2 - - - 0 / 9.9 5/29/2015 11:51:55 PM
Sensor [1]: Bridgedeck over I-77 Trace Moisture - 80.6 - - - - 1 / 9.9 5/29/2015 11:51:55 PM
10-SR5@SR45 (200009) Status Air Temp Sfc Temp Sub Temp Dew Temp Wind Precip Traffic Updated
Sensor [A]: Atmospheric - 73.6 - - 63.0 3.1 / SE - - 5/29/2015 11:50:24 PM
Sensor [0]: EB Driving Dry - 76.1 86.9 - - - - 5/29/2015 11:50:24 PM
Sensor [1]: SR5 EB Passing Dry - 75.2 - - - - - 5/29/2015 11:50:24 PM
Sensor [2]: SR5 WB Passing Bridgedeck Dry - 76.1 - - - - - 5/29/2015 11:50:24 PM
Sensor [3]: SR5 EB passing Bridgedeck Dry - 82.4 - - - - - 5/29/2015 11:50:24 PM
11-SR36@SR206 (200010) Status Air Temp Sfc Temp Sub Temp Dew Temp Wind Precip Traffic Updated
Sensor [A]: Atmospheric - 72.1 - - 65.8 8.7 / S - - 5/29/2015 11:00:47 PM
Sensor [0]: US36 EB Dry - 75.2 - - - - - 5/29/2015 11:00:47 PM
Sensor [1]: US36 WB Dry - 80.6 - - - - - 5/29/2015 11:00:47 PM
12- US 33 @ MM 11.5 (200011) Status Air Temp Sfc Temp Sub Temp Dew Temp Wind Precip Traffic Updated
Sensor [A]: Atmospheric - 72.5 - - 67.5 6.2 / S - - 5/29/2015 11:53:18 PM
Sensor [0]: US33 EB Driving Dry - 78.8 80.4 - - - - 5/29/2015 11:53:18 PM
Sensor [1]: US33 WB Driving Lane Bridgedeck Dry - 77.5 - - - - - 5/29/2015 11:53:18 PM
13-Knox County Garage (200012) Status Air Temp Sfc Temp Sub Temp Dew Temp Wind Precip Traffic Updated
Sensor [A]: Atmospheric - 72.1 - - 65.3 1.2 / SE - - 5/29/2015 11:51:56 PM
Sensor [0]: SR-3 NB Driving Dry - 80.6 82.4 - - - 0 / 9.9 5/29/2015 11:51:56 PM
14-SR 13 @ TR 37 Sheridan Rd (MM 32.6) (200013) Status Air Temp Sfc Temp Sub Temp Dew Temp Wind Precip Traffic Updated
Sensor [A]: Atmospheric - 69.1 - - 63.3 - - - 5/29/2015 11:51:58 PM
Sensor [0]: SR13 Eastbound Dry - 80.6 - - - - - 5/29/2015 11:51:58 PM
Sensor [1]: SR13 Westbound Dry - 78.8 - - - - - 5/29/2015 11:51:58 PM
15-US35 @ SR62 (200014) Status Air Temp Sfc Temp Sub Temp Dew Temp Wind Precip Traffic Updated
Sensor [A]: Atmospheric - 68.7 - - 54.0 8.7 / S - - 5/29/2015 11:52:33 PM
Sensor [0]: US35 EB Driving Dry - 74.3 - - - - - 5/29/2015 11:52:33 PM
Sensor [1]: US35 WB Driving Dry - 73.4 - - - - - 5/29/2015 11:52:33 PM
Sensor [2]: SR62 NB Bridgedeck Dry - 72.5 - - - - - 5/29/2015 11:52:33 PM
16-SR-752 @ 1.3 Pickaway County (200015) Status Air Temp Sfc Temp Sub Temp Dew Temp Wind Precip Traffic Updated
Sensor [A]: Atmospheric - 72.3 - - 66.4 2.5 / S - - 5/29/2015 11:50:32 PM
17-US23 @ E. Fairground Road Overpass (200016) Status Air Temp Sfc Temp Sub Temp Dew Temp Wind Precip Traffic Updated
Sensor [A]: Atmospheric - 75.9 - - 67.5 2.5 / NW - - 5/18/2015 12:29:42 PM
Sensor [0]: US23 NorthBound Passing Approach No Report - - - - - - - 5/18/2015 12:29:42 PM
Sensor [1]: US23 SouthBound Passing Bridgedeck No Report - - - - - - 34 / 57.2 5/18/2015 12:29:42 PM
18-US33 @ SR739 (200017) Status Air Temp Sfc Temp Sub Temp Dew Temp Wind Precip Traffic Updated
Sensor [A]: Atmospheric - 73.2 - - 65.1 - - - 5/29/2015 11:50:38 PM
Sensor [0]: US33 EB Driving Dry - 74.3 77.0 - - - - 5/29/2015 11:50:38 PM
Sensor [1]: US33 EB Passing Dry - 74.3 - - - - - 5/29/2015 11:50:38 PM
Sensor [2]: US33 WB Driving Dry - 78.8 - - - - - 5/29/2015 11:50:38 PM
Sensor [3]: SR739 NB Bridgedeck Dry - 80.6 - - - - - 5/29/2015 11:50:38 PM
Sensor [4]: US33 EB Driving Shade Dry - 77.0 - - - - - 5/29/2015 11:50:38 PM
19-US 68 near Clark Co. Line (MM 0.7) (200018) Status Air Temp Sfc Temp Sub Temp Dew Temp Wind Precip Traffic Updated
Sensor [A]: Atmospheric - 74.1 - - 67.1 8.7 / SW - - 5/29/2015 11:55:31 PM
Sensor [0]: US68 SB Driving Lane Dry - 81.7 86.2 - - - - 5/29/2015 11:55:31 PM
Sensor [1]: US68 NB Driving Lane Wet - 80.4 - - - - - 5/29/2015 11:55:31 PM
Sensor [2]: US68 NB Driving Lane Bridgedeck Dry - 80.4 - - - - - 5/29/2015 11:55:31 PM
20-SR 502 @ CR 30 Palestine-Union City Rd (MM 3.3) (200019) Status Air Temp Sfc Temp Sub Temp Dew Temp Wind Precip Traffic Updated
Sensor [A]: Atmospheric - 72.0 - - 65.8 5.0 / NE - - 5/29/2015 11:52:15 PM
Sensor [0]: SR502 EB Lane Dry - 82.4 84.2 - - - 0 / 9.9 5/29/2015 11:52:15 PM
21-US33 @ SR540 (200020) Status Air Temp Sfc Temp Sub Temp Dew Temp Wind Precip Traffic Updated
Sensor [A]: Atmospheric - 71.8 - - 63.7 5.6 / SE - - 5/29/2015 11:07:39 PM
Sensor [0]: US-33 East Bound Driving Lane Dry - 78.8 82.4 - - - 3 / 55.9 5/29/2015 11:07:39 PM
Sensor [1]: US-33 West Bound Passing Lane Dry - 186.8 - - - - 0 / 52.2 5/29/2015 11:07:39 PM
22-SR 29 @ Hickory Branch Creek (MM 1.6) (200021) Status Air Temp Sfc Temp Sub Temp Dew Temp Wind Precip Traffic Updated
Sensor [A]: Atmospheric - 72.5 - - 64.0 6.8 / S - - 5/29/2015 11:51:18 PM
Sensor [0]: SR29 EB Lane No Report - - - - - - 0 / 5.0 5/29/2015 11:51:18 PM
23-SR41 @ SR136 Adams County (200022) Status Air Temp Sfc Temp Sub Temp Dew Temp Wind Precip Traffic Updated
Sensor [A]: Atmospheric - 66.9 - - 66.0 - - - 5/29/2015 11:53:04 PM
Sensor [0]: SR136 NB Lane Dry - 73.4 85.1 - - - - 5/29/2015 11:53:04 PM
Sensor [1]: SR136 SB Lane Dry - 73.4 - - - - - 5/29/2015 11:53:04 PM
24-US68@SR125 (200023) Status Air Temp Sfc Temp Sub Temp Dew Temp Wind Precip Traffic Updated
Sensor [A]: Atmospheric - 70.0 - - 10.9 1.2 / NW - - 5/29/2015 11:15:15 PM
Sensor [0]: NB US68 Dry - 74.3 - - - - - 5/29/2015 11:15:15 PM
Sensor [1]: SB US68 Dry - 80.6 - - - - - 5/29/2015 11:15:15 PM
25-SR73 South of TR 409 (MM 4.2) (200024) Status Air Temp Sfc Temp Sub Temp Dew Temp Wind Precip Traffic Updated
Sensor [A]: Atmospheric - 70.3 - - 64.9 2.5 / SW - - 5/29/2015 11:52:28 PM
26-SR 32 @ TR 255 Rice Road (MM 14.6) (200025) Status Air Temp Sfc Temp Sub Temp Dew Temp Wind Precip Traffic Updated
Sensor [A]: Atmospheric - 66.7 - - 67.8 2.5 / NE - - 5/29/2015 11:52:29 PM
Sensor [0]: US 35 WB Driving Lane Dry - 70.7 82.4 - - - 10 / 52.8 5/29/2015 11:52:29 PM
Sensor [1]: US 35 EB Driving Lane Dry - 70.7 - - - - 8 / 55.3 5/29/2015 11:52:29 PM
Sensor [2]: SR32 Eastbound Driving Lane Bridgedeck Dry - 70.7 - - - - 12 / 51.0 5/29/2015 11:52:29 PM
Sensor [3]: SR32 Westbound Passing Lane Approach Dry - 70.7 - - - - 0 / 37.3 5/29/2015 11:52:29 PM
27-US52 @ Ice Creek (200026) Status Air Temp Sfc Temp Sub Temp Dew Temp Wind Precip Traffic Updated
Sensor [A]: Atmospheric - 68.9 - - 66.4 - - - 5/29/2015 11:51:52 PM
Sensor [1]: SR52 WB Driving Bridgedeck Dry - 75.2 - - - - 0 / 9.9 5/29/2015 11:51:52 PM
28-US23 @ SLM 6.5 (200027) Status Air Temp Sfc Temp Sub Temp Dew Temp Wind Precip Traffic Updated
Sensor [A]: Atmospheric - 68.9 - - 68.5 1.9 / SW - - 5/29/2015 11:49:27 PM
Sensor [0]: US23 NB Driving No Report - - - - - - - 5/29/2015 11:49:27 PM
Sensor [1]: US23 SB Driving Dry - 77.2 - - - - - 5/29/2015 11:49:27 PM
29-US 35 @Ross County Garage (MM 16.8) (200028) Status Air Temp Sfc Temp Sub Temp Dew Temp Wind Precip Traffic Updated
Sensor [A]: Atmospheric - 72.3 - - 68.0 0.6 / SE - - 5/29/2015 11:53:58 PM
Sensor [0]: US35 EB Driving Dry - 79.0 80.6 - - - 35 / 62.8 5/29/2015 11:53:58 PM
Sensor [1]: US35 WB Driving No Report - - - - - - 0 / 47.2 5/29/2015 11:53:58 PM
30-US 23 @Scioto County Garage (MM 9.7) (200029) Status Air Temp Sfc Temp Sub Temp Dew Temp Wind Precip Traffic Updated
Sensor [A]: Atmospheric - 67.6 - - 66.2 - - - 5/29/2015 11:51:09 PM
Sensor [0]: US23 NB Driving Dry - 77.0 - - - - 0 / 9.9 5/29/2015 11:51:09 PM
Sensor [1]: US23 SB Driving Dry - 77.0 84.2 - - - 0 / 9.9 5/29/2015 11:51:09 PM
31-USR 50 MM 17.68 (200030) Status Air Temp Sfc Temp Sub Temp Dew Temp Wind Precip Traffic Updated
Sensor [A]: Atmospheric - 68.0 - - 65.7 0.6 / W - - 5/29/2015 11:50:26 PM
Sensor [0]: US50 EB Driving Dry - 77.0 - - - - - 5/29/2015 11:50:26 PM
Sensor [1]: US50 WB Driving Dry - 82.4 - - - - - 5/29/2015 11:50:26 PM
32-USR 35 @ SR 160 (200031) Status Air Temp Sfc Temp Sub Temp Dew Temp Wind Precip Traffic Updated
Sensor [A]: Atmospheric - 67.5 - - - - - - 5/29/2015 11:50:28 PM
Sensor [0]: SR35 NB Driving Dry - 78.8 - - - - - 5/29/2015 11:50:28 PM
33-US33@mm9.2 (200032) Status Air Temp Sfc Temp Sub Temp Dew Temp Wind Precip Traffic Updated
Sensor [A]: Atmospheric - 68.4 - - 65.7 - - - 5/29/2015 11:52:00 PM
Sensor [0]: US33 EB Driving Dry - 72.5 - - - - - 5/29/2015 11:52:00 PM
Sensor [1]: US33 EB Driving Bridgedeck Wet - 77.0 - - - - - 5/29/2015 11:52:00 PM
34-US33 @ OH7 (200033) Status Air Temp Sfc Temp Sub Temp Dew Temp Wind Precip Traffic Updated
Sensor [A]: Atmospheric - 68.2 - - 70.7 0.6 / SW - - 5/29/2015 11:52:57 PM
Sensor [0]: US-33 EB Driving Departure Dry - 74.3 88.7 - - - - 5/29/2015 11:52:57 PM
Sensor [1]: US-33 WB Driving Approach Dry - 74.3 - - - - - 5/29/2015 11:52:57 PM
Sensor [2]: US-33 EB Driving Bridgedeck Dry - 80.6 - - - - - 5/29/2015 11:52:57 PM
35-SR7 @ SLM12.7 (200034) Status Air Temp Sfc Temp Sub Temp Dew Temp Wind Precip Traffic Updated
Sensor [A]: Atmospheric - 82.4 - - 66.0 1.9 / NE - - 5/28/2015 1:02:54 PM
Sensor [0]: SR7 NB Driving Lane Dry - 186.8 186.8 - - - - 5/28/2015 1:02:54 PM
Sensor [1]: SR7 SB Driving Lane Dry - 186.8 - - - - - 5/28/2015 1:02:54 PM
36-SR60 @ Monestary Rd (200035) Status Air Temp Sfc Temp Sub Temp Dew Temp Wind Precip Traffic Updated
Sensor [A]: Atmospheric - 70.0 - - 64.8 2.5 / SE - - 5/29/2015 11:52:37 PM
Sensor [0]: SR60 EB Lane Dry - 74.3 86.0 - - - - 5/29/2015 11:52:37 PM
Sensor [1]: SR60 WB Lane Dry - 73.4 - - - - - 5/29/2015 11:52:37 PM
37-SR32@SR160 (200036) Status Air Temp Sfc Temp Sub Temp Dew Temp Wind Precip Traffic Updated
Sensor [A]: Atmospheric - 67.8 - - 65.8 - - - 5/29/2015 11:52:02 PM
Sensor [0]: SR32 EB Driving Dry - 78.8 - - - - - 5/29/2015 11:52:02 PM
Sensor [1]: SR32 WB Driving Bridgedeck Dry - 78.8 - - - - - 5/29/2015 11:52:02 PM
38-SR43@SR9 (200037) Status Air Temp Sfc Temp Sub Temp Dew Temp Wind Precip Traffic Updated
Sensor [A]: Atmospheric - 71.4 - - 63.0 1.2 / S - - 5/29/2015 11:50:30 PM
Sensor [0]: SR43 NB Dry - 82.4 89.6 - - - - 5/29/2015 11:50:30 PM
Sensor [1]: SR9 SB Dry - 84.2 - - - - - 5/29/2015 11:50:30 PM
39-SR11@SR267 (200038) Status Air Temp Sfc Temp Sub Temp Dew Temp Wind Precip Traffic Updated
Sensor [A]: Atmospheric - 70.7 - - 63.5 - - - 5/29/2015 11:50:25 PM
40-Clinton County Garage (200039) Status Air Temp Sfc Temp Sub Temp Dew Temp Wind Precip Traffic Updated
Sensor [A]: Atmospheric - 70.9 - - 65.5 3.1 / E - - 5/29/2015 11:52:35 PM
41- SR62@SR206 (200042) Status Air Temp Sfc Temp Sub Temp Dew Temp Wind Precip Traffic Updated
Sensor [A]: Atmospheric - 76.3 - - 65.1 0.6 / S - - 5/29/2015 11:50:36 PM
Sensor [0]: SR62 EB Dry - 74.3 - - - - 2 / 44.1 5/29/2015 11:50:36 PM
Sensor [1]: SR62 WB Dry - 74.3 - - - - 0 / 42.3 5/29/2015 11:50:36 PM
42- SR7@ SLM14.65 (200041) Status Air Temp Sfc Temp Sub Temp Dew Temp Wind Precip Traffic Updated
Sensor [A]: Atmospheric - 71.1 - - 65.8 - - - 5/29/2015 11:50:30 PM
Sensor [0]: SR7 Passing Dry - 77.9 77.0 - - - - 5/29/2015 11:50:30 PM
Sensor [1]: SR7 NB Driving Dry - 82.4 - - - - - 5/29/2015 11:50:30 PM
51-IR 70 West of CR 320 (0.8 MM) (200050) Status Air Temp Sfc Temp Sub Temp Dew Temp Wind Precip Traffic Updated
Sensor [A]: Atmospheric - 70.5 - - 65.8 6.2 / NW - - 5/29/2015 11:50:33 PM
Sensor [0]: IR70 EB Driving Dry - 78.8 82.4 - - - 56 / 62.1 5/29/2015 11:50:33 PM
Sensor [1]: IR70 WB Driving Dry - 78.8 - - - - 60 / 60.3 5/29/2015 11:50:33 PM
52-18 MM MOT/PRE (200051) Status Air Temp Sfc Temp Sub Temp Dew Temp Wind Precip Traffic Updated
Sensor [A]: Atmospheric - 71.6 - - 65.8 6.2 / S - - 5/29/2015 11:50:34 PM
Sensor [0]: IR70 WB Passing Dry - 73.4 - - - - 56 / 57.8 5/29/2015 11:50:34 PM
Sensor [1]: IR70 EB Driving Dry - 78.8 - - - - 0 / 62.1 5/29/2015 11:50:34 PM
53-CLA-70 @ I675 ***Under Construction*** (200052) Status Air Temp Sfc Temp Sub Temp Dew Temp Wind Precip Traffic Updated
Sensor [A]: Atmospheric - 74.1 - - 65.8 7.5 / S - - 5/29/2015 11:50:38 PM
54-IR70 MM 62 (200053) Status Air Temp Sfc Temp Sub Temp Dew Temp Wind Precip Traffic Updated
Sensor [A]: Atmospheric - 72.3 - - 63.9 6.2 / N - - 5/29/2015 11:52:17 PM
Sensor [0]: I70 EB Driving Dry - 80.6 82.4 - - - 0 / 9.9 5/29/2015 11:52:17 PM
Sensor [1]: I70 WB Passing Dry - 80.6 - - - - 0 / 9.9 5/29/2015 11:52:17 PM
55-IR70 MM 142 (200054) Status Air Temp Sfc Temp Sub Temp Dew Temp Wind Precip Traffic Updated
Sensor [A]: Atmospheric - 69.4 - - 64.9 0.6 / SE - - 5/29/2015 11:50:36 PM
56-IR70 MM 169 (200055) Status Air Temp Sfc Temp Sub Temp Dew Temp Wind Precip Traffic Updated
Sensor [A]: Atmospheric - 71.6 - - 64.9 0.6 / E - - 5/29/2015 11:26:01 PM
Sensor [0]: IR70 EB Driving Dry - 78.8 82.4 - - - 4 / 18.0 5/29/2015 11:26:01 PM
Sensor [1]: IR70 WB Driving Dry - 186.8 - - - - 25 / 62.8 5/29/2015 11:26:01 PM
57-IR70 MM 198 (200056) Status Air Temp Sfc Temp Sub Temp Dew Temp Wind Precip Traffic Updated
Sensor [A]: Atmospheric - 72.1 - - 65.3 0.6 / SE - - 5/29/2015 11:50:44 PM
Sensor [0]: IR70 EB Driving Dry - 75.2 - - - - 40 / 57.2 5/29/2015 11:50:44 PM
Sensor [1]: IR70 EB Passing Dry - 75.2 - - - - 1 / 26.7 5/29/2015 11:50:44 PM
Sensor [3]: IR70 WB Driving (East) Dry - 80.6 - - - - 39 / 57.8 5/29/2015 11:50:44 PM
Sensor [4]: IR70 WB Driving (West) Dry - 78.8 - - - - - 5/29/2015 11:50:44 PM
58-IR470 MM 6 (200057) Status Air Temp Sfc Temp Sub Temp Dew Temp Wind Precip Traffic Updated
Sensor [A]: Atmospheric - - - - - 1.9 / W - - 5/29/2015 11:52:27 PM
Sensor [0]: IR470 EB Driving Dry - 80.6 86.0 - - - 30 / 44.1 5/29/2015 11:52:27 PM
Sensor [1]: IR470 WB Driving Dry - 80.6 - - - - 10 / 64.0 5/29/2015 11:52:27 PM
59- US 127 @ SR 744 (200058) Status Air Temp Sfc Temp Sub Temp Dew Temp Wind Precip Traffic Updated
Sensor [A]: Atmospheric - 70.5 - - 66.4 0.6 / SE - - 5/29/2015 11:51:55 PM
Sensor [0]: US127 NB Bridgedeck No Report - - - - - - 55 / 64.0 5/29/2015 11:51:55 PM
Sensor [1]: US127 SB Bridgedeck Dry - 83.1 - - - - 31 / 70.8 5/29/2015 11:51:55 PM
60-IR71 MM 62 (200059) Status Air Temp Sfc Temp Sub Temp Dew Temp Wind Precip Traffic Updated
Sensor [A]: Atmospheric - 70.7 - - 62.4 9.3 / SE - - 5/29/2015 11:51:22 PM
Sensor [0]: IR71 SB Passing Dry - 72.5 82.4 - - - 3 / 65.2 5/29/2015 11:51:22 PM
Sensor [1]: IR71 SB Center Dry - 74.3 - - - - 3 / 65.2 5/29/2015 11:51:22 PM
Sensor [2]: IR71 NB Driving Dry - 77.0 - - - - 0 / 9.9 5/29/2015 11:51:22 PM
Sensor [3]: IR71 NB Passing Bridgedeck Dry - 78.8 - - - - 0 / 9.9 5/29/2015 11:51:22 PM
61-IR71 MM 79 (200060) Status Air Temp Sfc Temp Sub Temp Dew Temp Wind Precip Traffic Updated
Sensor [A]: Atmospheric - 70.9 - - 62.6 2.5 / S - - 5/29/2015 11:51:24 PM
Sensor [1]: IR71 NB Driving Dry - 80.6 - - - - 0 / 9.9 5/29/2015 11:51:24 PM
62- Cemetary Rd. Over I-270 (200061) Status Air Temp Sfc Temp Sub Temp Dew Temp Wind Precip Traffic Updated
Sensor [A]: Atmospheric - 73.8 - - 66.4 6.8 / S - - 5/29/2015 11:50:30 PM
63-IR 71 @ Morrow/Delaware County Line (200062) Status Air Temp Sfc Temp Sub Temp Dew Temp Wind Precip Traffic Updated
Sensor [A]: Atmospheric - 60.3 - - 47.3 6.2 / E - - 4/9/2013 9:12:09 AM
64-I71 MM 158 (200063) Status Air Temp Sfc Temp Sub Temp Dew Temp Wind Precip Traffic Updated
Sensor [A]: Atmospheric - 71.1 - - 62.6 5.6 / S - - 5/29/2015 11:52:03 PM
Sensor [0]: IR71 NB Driving Dry - 78.8 78.8 - - - 0 / 9.9 5/29/2015 11:52:03 PM
Sensor [1]: IR71 SB Driving Dry - 78.8 - - - - 0 / 9.9 5/29/2015 11:52:03 PM
65-IR71 MM 174 (200064) Status Air Temp Sfc Temp Sub Temp Dew Temp Wind Precip Traffic Updated
Sensor [A]: Atmospheric - 72.5 - - 63.7 3.7 / SE - - 5/29/2015 11:52:08 PM
Sensor [0]: IR71 NB Driving Dry - 74.3 78.8 - - - 16 / 59.0 5/29/2015 11:52:08 PM
Sensor [1]: IR71 SB Center Dry - 80.6 - - - - 0 / 9.9 5/29/2015 11:52:08 PM
66-IR71 MM 195.55 (200065) Status Air Temp Sfc Temp Sub Temp Dew Temp Wind Precip Traffic Updated
Sensor [A]: Atmospheric - 71.4 - - 64.8 0.6 / S - - 5/29/2015 11:50:31 PM
Sensor [0]: IR71 North Bound Driving Lane Dry - 78.8 82.4 - - - 4 / 55.3 5/29/2015 11:50:31 PM
Sensor [1]: IR71 South Bound Passing Lane Dry - 75.2 - - - - 0 / 54.1 5/29/2015 11:50:31 PM
Sensor [2]: IR71 South Bound Driving Lane Dry - 80.6 - - - - 0 / 21.7 5/29/2015 11:50:31 PM
67-IR71 MM 209 (200066) Status Air Temp Sfc Temp Sub Temp Dew Temp Wind Precip Traffic Updated
Sensor [A]: Atmospheric - 74.1 - - 62.8 5.6 / S - - 5/29/2015 11:52:10 PM
Sensor [0]: IR71 NB Driving Dry - 82.4 82.4 - - - 0 / 9.9 5/29/2015 11:52:10 PM
Sensor [1]: IR71 SB Driving Bridgedeck Dry - 82.4 - - - - 0 / 9.9 5/29/2015 11:52:10 PM
68-IR271 @ IR77 (200067) Status Air Temp Sfc Temp Sub Temp Dew Temp Wind Precip Traffic Updated
Sensor [A]: Atmospheric - 73.0 - - 61.5 3.1 / S - - 5/29/2015 11:52:13 PM
Sensor [0]: I271 SB Passing Bridgedeck Dry - 80.6 - - - - 0 / 9.9 5/29/2015 11:52:13 PM
Sensor [1]: I271 NB Driving Dry - 78.8 - - - - 0 / 9.9 5/29/2015 11:52:13 PM
69-IR275 MM 21 (200068) Status Air Temp Sfc Temp Sub Temp Dew Temp Wind Precip Traffic Updated
Sensor [A]: Atmospheric - 73.2 - - 67.5 - - - 5/29/2015 11:51:25 PM
Sensor [0]: IR275 NB Driving Dry - 80.6 82.4 - - - 0 / 9.9 5/29/2015 11:51:25 PM
Sensor [1]: IR275 SB Driving Dry - 82.4 - - - - 0 / 9.9 5/29/2015 11:51:25 PM
70-IR275 HAM/CLER (200069) Status Air Temp Sfc Temp Sub Temp Dew Temp Wind Precip Traffic Updated
Sensor [A]: Atmospheric - 73.9 - - 67.6 1.2 / W - - 5/29/2015 11:50:08 PM
71-I675 MONT/GRE (200070) Status Air Temp Sfc Temp Sub Temp Dew Temp Wind Precip Traffic Updated
Sensor [A]: Atmospheric - 73.6 - - 64.0 5.6 / E - - 5/29/2015 11:50:48 PM
Sensor [0]: I675 NB Driving Dry - 80.6 82.4 - - - 46 / 60.9 5/29/2015 11:50:48 PM
Sensor [1]: I675 SB Driving Dry - 80.6 - - - - 97 / 62.8 5/29/2015 11:50:48 PM
72-18 MM BUT/HAM (200071) Status Air Temp Sfc Temp Sub Temp Dew Temp Wind Precip Traffic Updated
Sensor [A]: Atmospheric - 75.9 - - 65.3 5.0 / E - - 5/29/2015 11:50:45 PM
Sensor [0]: IR75 NB Passing Dry - 82.4 82.4 - - - - 5/29/2015 11:50:45 PM
Sensor [1]: IR75 SB Driving Dry - 82.4 - - - - - 5/29/2015 11:50:45 PM
73-I75mm27.5 SB (200072) Status Air Temp Sfc Temp Sub Temp Dew Temp Wind Precip Traffic Updated
Sensor [A]: Atmospheric - 75.4 - - 66.7 2.5 / S - - 5/29/2015 11:50:37 PM
Sensor [0]: IR75 NB Driving Dry - 80.6 - - - - - 5/29/2015 11:50:37 PM
Sensor [1]: IR75 SB Driving Dry - 82.4 - - - - - 5/29/2015 11:50:37 PM
74-IR75 MM 40 (200073) Status Air Temp Sfc Temp Sub Temp Dew Temp Wind Precip Traffic Updated
Sensor [A]: Atmospheric - 73.4 - - 67.6 7.5 / S - - 5/29/2015 11:50:49 PM
Sensor [0]: IR75 NB Driving Trace Moisture - 78.8 82.4 - - - 26 / 14.3 5/29/2015 11:50:49 PM
Sensor [1]: IR75 SB Driving Dry - 78.8 - - - - 9 / 19.3 5/29/2015 11:50:49 PM
75-SR 16 @ CR 34 W. Carlisle Rd (MM 4.3) (200074) Status Air Temp Sfc Temp Sub Temp Dew Temp Wind Precip Traffic Updated
Sensor [A]: Atmospheric - 72.0 - - 64.8 1.2 / NW - - 5/29/2015 11:50:36 PM
Sensor [0]: SR16 EB Driving Bridgedeck Dry - 84.2 89.6 - - - - 5/29/2015 11:50:36 PM
76-IR75 MM 84 (200075) Status Air Temp Sfc Temp Sub Temp Dew Temp Wind Precip Traffic Updated
Sensor [A]: Atmospheric - 73.8 - - 64.9 2.5 / S - - 5/29/2015 11:52:06 PM
77-IR75 MM 105 (200076) Status Air Temp Sfc Temp Sub Temp Dew Temp Wind Precip Traffic Updated
Sensor [A]: Atmospheric - 72.9 - - 65.1 - - - 5/29/2015 11:51:09 PM
Sensor [0]: IR75 NB Driving Dry - 78.8 63.7 - - - 0 / 9.9 5/29/2015 11:51:09 PM
Sensor [1]: IR75 SB Driving Dry - 82.4 - - - - 0 / 9.9 5/29/2015 11:51:09 PM
78-IR75 MM 119 (200077) Status Air Temp Sfc Temp Sub Temp Dew Temp Wind Precip Traffic Updated
Sensor [A]: Atmospheric - 73.4 - - 64.0 3.7 / S - - 5/29/2015 11:51:11 PM
Sensor [0]: IR75 NB Driving Wet - 80.6 65.5 - - - 0 / 9.9 5/29/2015 11:51:11 PM
Sensor [1]: IR75 SB Driving Dry - 80.6 - - - - 0 / 9.9 5/29/2015 11:51:11 PM
79-IR 75 @ Allen/Hancock County Line (200078) Status Air Temp Sfc Temp Sub Temp Dew Temp Wind Precip Traffic Updated
Sensor [A]: Atmospheric - 74.1 - - 63.3 4.3 / SE - - 5/29/2015 11:52:24 PM
Sensor [0]: IR75 NB Driving Dry - 78.8 82.4 - - - 0 / 9.9 5/29/2015 11:52:24 PM
Sensor [1]: IR75 SB Driving Dry - 78.8 - - - - 0 / 9.9 5/29/2015 11:52:24 PM
80-IR 77@ SR 7 Interchange (200079) Status Air Temp Sfc Temp Sub Temp Dew Temp Wind Precip Traffic Updated
Sensor [A]: Atmospheric - 67.8 - - 65.7 0.6 / SE - - 5/29/2015 11:52:54 PM
Sensor [0]: I77 SB Driving Lane Wet - 78.4 - - - - - 5/29/2015 11:52:54 PM
81-IR77 MM 16 (200080) Status Air Temp Sfc Temp Sub Temp Dew Temp Wind Precip Traffic Updated
Sensor [A]: Atmospheric - 66.0 - - 65.5 - - - 5/29/2015 11:56:20 PM
Sensor [0]: IR77 SB Driving Dry - 77.4 - - - - - 5/29/2015 11:56:20 PM
82-IR77 MM 36 (200081) Status Air Temp Sfc Temp Sub Temp Dew Temp Wind Precip Traffic Updated
Sensor [A]: Atmospheric - 67.5 - - 65.1 1.9 / SE - - 5/29/2015 11:52:23 PM
Sensor [0]: IR77 SB Driving Dry - 75.7 80.2 - - - 27 / 64.0 5/29/2015 11:52:23 PM
Sensor [1]: IR77 NB Driving Dry - 75.9 - - - - 0 / 52.8 5/29/2015 11:52:23 PM
83-IR77 MM 59 (200082) Status Air Temp Sfc Temp Sub Temp Dew Temp Wind Precip Traffic Updated
Sensor [A]: Atmospheric - 72.0 - - 63.9 0.6 / SE - - 5/29/2015 11:52:59 PM
Sensor [0]: IR77 NB Driving Dry - 80.6 82.4 - - - 0 / 5.0 5/29/2015 11:52:59 PM
Sensor [1]: IR77 SB Driving Dry - 80.6 - - - - 0 / 5.0 5/29/2015 11:52:59 PM
84-IR 77 @ Stark/Tuscarawas County Line (200083) Status Air Temp Sfc Temp Sub Temp Dew Temp Wind Precip Traffic Updated
Sensor [A]: Atmospheric - 72.9 - - 66.4 1.9 / SE - - 5/29/2015 11:53:22 PM
Sensor [0]: IR77 NB Passing Lane Dry - 79.7 80.8 - - - 0 / 52.8 5/29/2015 11:53:22 PM
Sensor [1]: IR77 SB Passing Lane Dry - 78.8 - - - - 0 / 6.8 5/29/2015 11:53:22 PM
85-SR2 @ Huron River (200084) Status Air Temp Sfc Temp Sub Temp Dew Temp Wind Precip Traffic Updated
Sensor [A]: Atmospheric - 75.9 - - 64.4 4.3 / E - - 5/29/2015 11:53:06 PM
Sensor [0]: SR2 WB Driving Appraoch Dry - 77.0 77.0 - - - 8959 / 154.1 5/29/2015 11:53:06 PM
Sensor [1]: SR2 EB Driving Departure Dry - 77.0 - - - - 1 / 5.0 5/29/2015 11:53:06 PM
86-IR90 @ SR57 (200085) Status Air Temp Sfc Temp Sub Temp Dew Temp Wind Precip Traffic Updated
Sensor [A]: Atmospheric - 75.2 - - 65.5 4.3 / S - - 5/29/2015 11:51:57 PM
Sensor [0]: IR90 EB Driving No Report - - - - - - 34 / 6.2 5/29/2015 11:51:57 PM
Sensor [1]: IR90 WB Driving Dry - 78.8 - - - - 0 / 5.0 5/29/2015 11:51:57 PM
87-IR90 ATB/LAKE (200086) Status Air Temp Sfc Temp Sub Temp Dew Temp Wind Precip Traffic Updated
Sensor [A]: Atmospheric - 74.7 - - 64.0 5.6 / S - - 5/29/2015 11:53:07 PM
Sensor [2]: I90 WB Passing Dry - 78.8 - - - - 52 / 59.0 5/29/2015 11:53:07 PM
88-IR90 @ SR11 (200087) Status Air Temp Sfc Temp Sub Temp Dew Temp Wind Precip Traffic Updated
Sensor [A]: Atmospheric - 73.4 - - 66.4 6.2 / S - - 5/29/2015 11:52:19 PM
Sensor [0]: IR90 EB Passing Dry - 78.4 75.4 - - - 0 / 158.4 5/29/2015 11:52:19 PM
Sensor [1]: IR90 WB Passing (Under Construction) Dry - 84.2 - - - - 31 / 65.2 4/28/2015 2:02:22 PM
89-IR90 @ PA Line (200088) Status Air Temp Sfc Temp Sub Temp Dew Temp Wind Precip Traffic Updated
Sensor [A]: Atmospheric - 72.3 - - 66.4 1.9 / S - - 5/29/2015 11:54:31 PM
Sensor [0]: IR90 EB Driving Bridgedeck Dry - 77.9 76.6 - - - - 5/29/2015 11:54:31 PM
Sensor [1]: IR90 EB Passing Dry - 75.4 - - - - - 5/29/2015 11:54:31 PM
Sensor [2]: IR90 WB Passing Bridgedeck Dry - 78.8 - - - - - 5/29/2015 11:54:31 PM
Sensor [3]: IR90 WB Driving Dry - 77.2 - - - - - 5/29/2015 11:54:31 PM
90-IR80 @ PA Line (200089) Status Air Temp Sfc Temp Sub Temp Dew Temp Wind Precip Traffic Updated
Sensor [A]: Atmospheric - 70.9 - - 66.6 1.9 / E - - 5/29/2015 11:53:14 PM
Sensor [0]: IR80 EB Driving Dry - 76.1 76.3 - - - 21 / 49.1 5/29/2015 11:53:14 PM
Sensor [1]: IR80 WB Driving Dry - 76.5 - - - - 0 / 47.8 5/29/2015 11:53:14 PM
91-IR76 MAH/POR (200090) Status Air Temp Sfc Temp Sub Temp Dew Temp Wind Precip Traffic Updated
Sensor [A]: Atmospheric - 72.3 - - 63.7 - - - 5/29/2015 11:53:09 PM
Sensor [0]: IR76 EB Passing Dry - 80.6 80.6 - - - 6 / 9.9 5/29/2015 11:53:09 PM
Sensor [1]: IR76 WB Passing Bridgedeck Dry - 78.8 - - - - 22 / 55.9 5/29/2015 11:53:09 PM
Sensor [2]: IR76 EB Driving Dry - 80.6 - - - - 17 / 64.0 5/29/2015 11:53:09 PM
Sensor [3]: IR76 WB Driving Bridgedeck Dry - 78.8 - - - - 43 / 64.0 5/29/2015 11:53:09 PM
92-IR76 POR/SUM (200091) Status Air Temp Sfc Temp Sub Temp Dew Temp Wind Precip Traffic Updated
Sensor [A]: Atmospheric - 69.3 - - 63.9 0.6 / S - - 5/29/2015 11:50:34 PM
94-SR11 ATB/TRUM (200093) Status Air Temp Sfc Temp Sub Temp Dew Temp Wind Precip Traffic Updated
Sensor [A]: Atmospheric - 71.6 - - 66.0 3.7 / S - - 5/29/2015 11:53:11 PM
Sensor [0]: SR11 NB Driving No Report - - - - - - 22 / 64.0 5/29/2015 11:53:11 PM
Sensor [1]: SR11 SB Driving No Report - - - - - - 2 / 9.9 5/29/2015 11:53:11 PM
95-SR11 MAH/COL (200094) Status Air Temp Sfc Temp Sub Temp Dew Temp Wind Precip Traffic Updated
Sensor [A]: Atmospheric - 71.4 - - 65.5 1.9 / S - - 5/29/2015 11:51:02 PM
Sensor [0]: SR11 NB Driving Dry - 79.0 82.9 - - - 0 / 64.0 5/29/2015 11:51:02 PM
Sensor [1]: SR11 SB Driving Dry - 80.8 - - - - 0 / 9.9 5/29/2015 11:51:02 PM
97-SR315 @ I270 (200096) Status Air Temp Sfc Temp Sub Temp Dew Temp Wind Precip Traffic Updated
Sensor [A]: Atmospheric - 75.0 - - 66.4 3.1 / SW - - 5/29/2015 11:50:06 PM
Sensor [1]: I270 WB Passing Dry - 80.6 - - - - 0 / 42.3 5/29/2015 11:50:06 PM
Sensor [2]: IR Ice Detection Sensor Dry - - - - - - 6 / 60.3 5/29/2015 11:50:06 PM
98-I270 SB Ramp to SR161 EB (200097) Status Air Temp Sfc Temp Sub Temp Dew Temp Wind Precip Traffic Updated
Sensor [A]: Atmospheric - 74.8 - - 65.1 5.6 / W - - 5/29/2015 11:50:40 PM
Sensor [1]: SR161 WB Driving Dry - 75.2 - - - - 0 / 50.3 5/29/2015 11:50:40 PM
99-US30 @ Dalton (200098) Status Air Temp Sfc Temp Sub Temp Dew Temp Wind Precip Traffic Updated
Sensor [A]: Atmospheric - 73.9 - - 65.8 4.3 / S - - 5/29/2015 11:51:40 PM
Sensor [0]: US30 EB Driving Dry - 80.2 86.0 - - - 0 / 50.3 5/29/2015 11:51:40 PM
Sensor [1]: US30 WB Driving Bridgedeck Dry - 81.0 - - - - 11 / 57.2 5/29/2015 11:51:40 PM
100-SR225 @ Berlin Reservoir (200099) Status Air Temp Sfc Temp Sub Temp Dew Temp Wind Precip Traffic Updated
Sensor [A]: Atmospheric - 70.0 - - 66.0 0.6 / S - - 5/29/2015 10:53:49 PM
Sensor [0]: SR225 NB Lane Dry - 80.8 79.0 - - - 0 / 65.2 5/29/2015 10:53:49 PM
Sensor [1]: SR225 SB Bridgedeck Dry - 81.5 - - - - 4 / 9.9 5/29/2015 10:53:49 PM
101-SR45 @ Rock Creek (200100) Status Air Temp Sfc Temp Sub Temp Dew Temp Wind Precip Traffic Updated
Sensor [A]: Atmospheric - 69.1 - - 66.0 - Rain / 0.0 - 5/29/2015 11:53:10 PM
102-SR 167 / SR 7 @ East Branch Ashtabula River (MM 11.0) (200101) Status Air Temp Sfc Temp Sub Temp Dew Temp Wind Precip Traffic Updated
Sensor [A]: Atmospheric - 71.1 - - 67.3 5.0 / S - - 5/29/2015 11:52:51 PM
Sensor [0]: SR7 NB No Report - - - - - - 6 / 42.3 5/29/2015 11:52:51 PM
Sensor [1]: SR7 SB Bridgedeck No Report - - - - - - 0 / 5.0 5/29/2015 11:52:51 PM
103- I-70 @ SR-79 (200102) Status Air Temp Sfc Temp Sub Temp Dew Temp Wind Precip Traffic Updated
Sensor [A]: Atmospheric - 73.2 - - 64.0 5.0 / S - - 5/29/2015 11:50:47 PM
Sensor [1]: SR79 SB Bridgedeck Dry - 80.6 - - - - 36 / 50.3 5/29/2015 11:50:47 PM
Sensor [2]: IR70 EB Driving Dry - 78.8 - - - - 32 / 60.3 5/29/2015 11:50:47 PM
104-SR 3 KNOX/Ashland (200103) Status Air Temp Sfc Temp Sub Temp Dew Temp Wind Precip Traffic Updated
Sensor [A]: Atmospheric - 69.6 - - 66.4 2.5 / S - - 5/29/2015 11:52:49 PM
Sensor [0]: SR3 SB Dry - 81.1 84.2 - - - 2 / 52.2 5/29/2015 11:52:49 PM
105-IR70/IR75 (200104) Status Air Temp Sfc Temp Sub Temp Dew Temp Wind Precip Traffic Updated
Sensor [A]: Atmospheric - 75.4 - - 63.1 4.3 / SE - - 5/29/2015 11:50:46 PM
Sensor [0]: IR75 NB Driving Dry - 82.4 - - - - 12 / 60.3 5/29/2015 11:50:46 PM
Sensor [1]: IR70 WB Driving Bridgedeck Dry - 82.4 - - - - 46 / 65.2 5/29/2015 11:50:46 PM
106-SR39 @ Sugarcreek (200105) Status Air Temp Sfc Temp Sub Temp Dew Temp Wind Precip Traffic Updated
Sensor [A]: Atmospheric - 72.7 - - 65.7 4.3 / SW - - 5/29/2015 11:51:31 PM
Sensor [0]: SR39 EB Lane No Report - - - - - - 6 / 51.0 5/29/2015 11:51:31 PM
Sensor [1]: SR39 WB Lane Dry - 80.8 - - - - 131 / 47.8 5/29/2015 11:51:31 PM
107-US250 @ Ulrichsville (200106) Status Air Temp Sfc Temp Sub Temp Dew Temp Wind Precip Traffic Updated
Sensor [A]: Atmospheric - 69.8 - - 68.4 - - - 5/29/2015 11:53:00 PM
Sensor [0]: US250 EB Driving Dry - 80.6 87.8 - - - 0 / 5.0 5/29/2015 11:53:00 PM
Sensor [1]: US250 WB Driving Dry - 80.6 - - - - 0 / 5.0 5/29/2015 11:53:00 PM
108-SR 183 @ Minerva / Linden Road NW (MM 7.9) (200107) Status Air Temp Sfc Temp Sub Temp Dew Temp Wind Precip Traffic Updated
Sensor [A]: Atmospheric - 68.2 - - 65.8 - - - 5/29/2015 11:53:06 PM
Sensor [0]: SR183 NB Bridgedeck Dry - 80.1 83.3 - - - 9 / 70.8 5/29/2015 11:53:06 PM
Sensor [1]: SR183 SB Dry - 77.9 - - - - 4 / 9.9 5/29/2015 11:53:06 PM
109-SR 22 @ East of SR 151 at the RR overpass (MM 24.6) (200108) Status Air Temp Sfc Temp Sub Temp Dew Temp Wind Precip Traffic Updated
Sensor [A]: Atmospheric - 72.3 - - 65.5 1.2 / NW - - 5/29/2015 11:53:03 PM
Sensor [0]: SR22E Driving Lane Dry - 77.9 90.5 - - - 19 / 67.1 5/29/2015 11:53:03 PM
Sensor [1]: SR22W Passing Lane Dry - 76.1 - - - - 2 / 73.9 5/29/2015 11:53:03 PM
110-SR7 @ SR213 (200109) Status Air Temp Sfc Temp Sub Temp Dew Temp Wind Precip Traffic Updated
Sensor [A]: Atmospheric - 66.9 - - 66.0 1.2 / SW - - 5/29/2015 11:53:05 PM
Sensor [0]: SR7 NB Driving Dry - 76.3 80.2 - - - 6 / 42.3 5/29/2015 11:53:05 PM
111-I70 MM 114 (200110) Status Air Temp Sfc Temp Sub Temp Dew Temp Wind Precip Traffic Updated
Sensor [A]: Atmospheric - 73.2 - - 65.8 3.7 / NW - - 5/29/2015 11:50:31 PM
Sensor [0]: IR70 WB Passing Dry - 78.8 82.4 - - - 86 / 47.8 5/29/2015 11:50:31 PM
Sensor [1]: IR70 WB Passing Bridgedeck Dry - 78.8 - - - - 71 / 75.8 5/29/2015 11:50:31 PM
112-USR 27 @ 21 MM (200111) Status Air Temp Sfc Temp Sub Temp Dew Temp Wind Precip Traffic Updated
Sensor [A]: Atmospheric - 68.5 - - 65.7 18.0 / SW Rain / 2.3 - 5/26/2015 4:22:07 PM
Sensor [0]: SR27 NB Lane Wet - 76.1 61.3 - - - 11 / 44.7 5/26/2015 4:22:07 PM
Sensor [1]: SR27 SB Lane Wet - 86.0 - - - - 0 / 9.9 5/26/2015 4:22:07 PM
113-I-275 @ USR 52 (200112) Status Air Temp Sfc Temp Sub Temp Dew Temp Wind Precip Traffic Updated
Sensor [A]: Atmospheric - 74.3 - - 66.7 2.5 / NW - - 5/29/2015 11:50:11 PM
Sensor [0]: I275 SB Driving Bridgedeck Dry - 77.0 82.4 - - - 28 / 60.3 5/29/2015 11:50:11 PM
Sensor [1]: I275 NB Driving Dry - 82.4 - - - - 35 / 62.8 5/29/2015 11:50:11 PM
114-IR71 @ US36 (38000) Status Air Temp Sfc Temp Sub Temp Dew Temp Wind Precip Traffic Updated
Sensor [A]: Atmospheric - 73.0 - - 62.4 5.0 / N - - 5/29/2015 11:50:39 PM
Sensor [0]: I71 SB Driving Dry - 75.2 - - - - - 5/29/2015 11:50:39 PM
Sensor [2]: US36 WB Bridge Dry - 80.6 - - - - - 5/29/2015 11:50:39 PM
115-IR71 @ Schrock Road (38001) Status Air Temp Sfc Temp Sub Temp Dew Temp Wind Precip Traffic Updated
Sensor [A]: Atmospheric - 73.9 - - 65.3 5.6 / SE - - 5/29/2015 11:50:39 PM
Sensor [0]: Schrock Rd Approach Dry - 79.7 - - - - - 5/29/2015 11:50:39 PM
Sensor [1]: Schrock Rd Bridgedeck Dry - 79.7 - - - - - 5/29/2015 11:50:39 PM
116-IR70W @ I270 (38004) Status Air Temp Sfc Temp Sub Temp Dew Temp Wind Precip Traffic Updated
Sensor [A]: Atmospheric - - - - - 5.6 / S - - 5/29/2015 11:50:40 PM
Sensor [0]: I-70 EB Drive Error - - - - - - - 5/29/2015 11:50:40 PM
117-IR70 @ SR29 (38005) Status Air Temp Sfc Temp Sub Temp Dew Temp Wind Precip Traffic Updated
Sensor [A]: Atmospheric - 72.9 - - 56.8 4.3 / S - - 5/29/2015 11:50:41 PM
Sensor [2]: I70 WB Driving Dry - 75.0 - - - - - 5/29/2015 11:50:41 PM
118-IR70/IR71/SR315 (38006) Status Air Temp Sfc Temp Sub Temp Dew Temp Wind Precip Traffic Updated
Sensor [A]: Atmospheric - 74.5 - - 65.7 5.0 / S - - 5/29/2015 11:50:00 PM
Sensor [0]: I70 WB to I71 SB Ramp Dry - 79.0 - - - - - 5/29/2015 11:50:00 PM
Sensor [2]: SR315 NB Driving Dry - 80.6 - - - - - 5/29/2015 11:50:00 PM
Sensor [3]: I70 WB Driving Dry - 84.2 - - - - - 5/29/2015 11:50:00 PM
119-IR71S @ I270 (38007) Status Air Temp Sfc Temp Sub Temp Dew Temp Wind Precip Traffic Updated
Sensor [A]: Atmospheric - 33.1 - - 23.2 7.5 / N - - 1/20/2014 7:31:46 AM
Sensor [2]: I270 EB Passing Error - - - - - - - 1/20/2014 7:31:46 AM
120-US33 @ Hamilton Road (38010) Status Air Temp Sfc Temp Sub Temp Dew Temp Wind Precip Traffic Updated
Sensor [A]: Atmospheric - 73.0 - - 61.3 1.9 / NE - - 5/29/2015 11:51:12 PM
Sensor [0]: US33 EB Passing Dry - 80.6 - - - - - 5/29/2015 11:51:12 PM
121-I-670 Over Airport Connector (38014) Status Air Temp Sfc Temp Sub Temp Dew Temp Wind Precip Traffic Updated
Sensor [A]: Atmospheric - 73.8 - - 64.6 3.7 / S - - 5/29/2015 11:51:13 PM
Sensor [0]: Airport Connector Bridgedeck Dry - 78.4 - - - - - 5/29/2015 11:51:13 PM
Sensor [1]: I670 EB Passing Dry - 77.5 - - - - - 5/29/2015 11:51:13 PM
Sensor [2]: I670 WB Passing Dry - 77.5 - - - - - 5/29/2015 11:51:13 PM
122-Medina Line Rd. Over I-271 (612000) Status Air Temp Sfc Temp Sub Temp Dew Temp Wind Precip Traffic Updated
Sensor [A]: Atmospheric - 73.6 - - 63.3 2.5 / S - - 5/29/2015 11:50:07 PM
Sensor [0]: SB Bridge Dry - 81.1 - - - - - 5/29/2015 11:50:07 PM
Sensor [1]: SB Road Dry - 84.2 87.8 - - - - 5/29/2015 11:50:07 PM
123-Steels Corner Rd. /Mud Creek (612003) Status Air Temp Sfc Temp Sub Temp Dew Temp Wind Precip Traffic Updated
Sensor [A]: Atmospheric - 75.6 - - 66.0 4.3 / S - - 5/29/2015 11:50:08 PM
Sensor [0]: WB Bridge Dry - 81.9 - - - - - 5/29/2015 11:50:08 PM
Sensor [1]: WB Road Dry - 86.0 87.8 - - - - 5/29/2015 11:50:08 PM
124-Old Mill Rd. Over I-480 (612004) Status Air Temp Sfc Temp Sub Temp Dew Temp Wind Precip Traffic Updated
Sensor [A]: Atmospheric - 73.2 - - 66.9 0.6 / S - - 5/29/2015 11:50:09 PM
Sensor [0]: I480 EB Driving Dry - 78.8 - - - - - 5/29/2015 11:50:09 PM
Sensor [1]: I480 WB Driving Dry - 80.6 78.8 - - - - 5/29/2015 11:50:09 PM
Sensor [2]: Old Mill Rd Bridgedeck Dry - 82.4 - - - - - 5/29/2015 11:50:09 PM
125-Ridgewood Rd. Over Rt 21 (612006) Status Air Temp Sfc Temp Sub Temp Dew Temp Wind Precip Traffic Updated
Sensor [A]: Atmospheric - 73.8 - - 65.7 4.3 / SW - - 5/29/2015 11:50:11 PM
Sensor [0]: EB Bridge Deck Dry - 82.4 - - - - - 5/29/2015 11:50:11 PM
126-Killian Rd. Over I-77 (612011) Status Air Temp Sfc Temp Sub Temp Dew Temp Wind Precip Traffic Updated
Sensor [A]: Atmospheric - 73.9 - - 64.8 6.2 / S - - 5/29/2015 11:50:13 PM
Sensor [0]: EB Bridge Dry - 80.6 86.2 - - - - 5/29/2015 11:50:13 PM
127-US 6 Williams County (582000) Status Air Temp Sfc Temp Sub Temp Dew Temp Wind Precip Traffic Updated
Sensor [A]: Atmospheric - 74.1 - - - 6.8 / S - - 5/29/2015 11:50:17 PM
Sensor [0]: US-6 EB Lane Dry - 75.2 - - - - 1 / 65.2 5/29/2015 11:50:17 PM
Sensor [2]: US6 EB Error - 79.2 81.3 - - - - 5/29/2015 11:50:17 PM
128-US 20 @ SR 49 (582001) Status Air Temp Sfc Temp Sub Temp Dew Temp Wind Precip Traffic Updated
Sensor [A]: Atmospheric - 72.5 - - 63.7 3.7 / SW - - 5/29/2015 11:50:18 PM
Sensor [0]: US-20 EB Dry - 76.1 - - - - - 5/29/2015 11:50:18 PM
129-US 20 @ ALT US 20 (582002) Status Air Temp Sfc Temp Sub Temp Dew Temp Wind Precip Traffic Updated
Sensor [A]: Atmospheric - 77.5 - - 66.6 6.8 / S - - 5/29/2015 11:50:19 PM
Sensor [2]: SR-20A WB Approach Dry - 79.2 82.4 - - - - 5/29/2015 11:50:19 PM
Sensor [3]: SR-20A WB Deck Dry - 81.0 - - - - - 5/29/2015 11:50:19 PM
130-US 20A @ SLM 2.5 Fulton (582003) Status Air Temp Sfc Temp Sub Temp Dew Temp Wind Precip Traffic Updated
Sensor [A]: Atmospheric - 72.7 - - 12.9 1.9 / SW - - 5/29/2015 11:50:20 PM
Sensor [0]: US-20 EB Deck Dry - 79.9 - - - - - 5/29/2015 11:50:20 PM
Sensor [1]: US-20 EB Approach Dry - 80.8 - - - - - 5/29/2015 11:50:20 PM
131-US 20 @ CR19 and Bean Creek (MM 9.0) (582004) Status Air Temp Sfc Temp Sub Temp Dew Temp Wind Precip Traffic Updated
Sensor [A]: Atmospheric - 74.7 - - - 3.1 / S Rain / 0.0 - 5/29/2015 11:50:21 PM
Sensor [0]: US-20 WB Deck Dry - 79.7 - - - - - 5/29/2015 11:50:21 PM
Sensor [1]: US-20 EB Approach Error - - - - - - - 5/29/2015 11:50:21 PM
132-SR 64 @ County Road N (MM 6.4) (582005) Status Air Temp Sfc Temp Sub Temp Dew Temp Wind Precip Traffic Updated
Sensor [A]: Atmospheric - 73.2 - - 66.7 9.3 / S - - 5/29/2015 11:50:22 PM
133-US 6 @ SLM .5 (582006) Status Air Temp Sfc Temp Sub Temp Dew Temp Wind Precip Traffic Updated
Sensor [A]: Atmospheric - 73.8 - - 64.8 6.2 / S - - 5/29/2015 11:50:23 PM
Sensor [0]: US-6 WB Dry - 77.7 57.2 - - - - 5/29/2015 11:50:23 PM
134-SR 108 @ SLM .5 (582007) Status Air Temp Sfc Temp Sub Temp Dew Temp Wind Precip Traffic Updated
Sensor [A]: Atmospheric - 72.0 - - 63.3 4.3 / S - - 5/29/2015 11:50:07 PM
135-US Rt 6 @ Maumee River (582008) Status Air Temp Sfc Temp Sub Temp Dew Temp Wind Precip Traffic Updated
Sensor [A]: Atmospheric - 74.8 - - 71.2 6.8 / SE - - 5/29/2015 11:50:09 PM
Sensor [0]: US-6 EB Deck Error - 77.7 - - - - - 5/29/2015 11:50:09 PM
Sensor [1]: US-6 WB Deck Error - - - - - - - 5/29/2015 11:50:09 PM
136-Rt 65 South Henry County (582009) Status Air Temp Sfc Temp Sub Temp Dew Temp Wind Precip Traffic Updated
Sensor [A]: Atmospheric - 72.3 - - 62.8 7.5 / S - - 5/29/2015 11:50:11 PM
Sensor [0]: SR-65 NB Dry - 72.5 - - - - - 5/29/2015 11:50:11 PM
137-SR 64 @ County Road N (MM 6.4) (582010) Status Air Temp Sfc Temp Sub Temp Dew Temp Wind Precip Traffic Updated
Sensor [A]: Atmospheric - 72.5 - - 66.4 1.9 / W - - 5/29/2015 11:50:13 PM
Sensor [0]: SR-64 EB Approach Dry - 77.5 - - - - - 5/29/2015 11:50:13 PM
Sensor [1]: SR-64 EB @ RPU Dry - 80.2 - - - - - 5/29/2015 11:50:13 PM
138-SR 295 @ Maumee River (582011) Status Air Temp Sfc Temp Sub Temp Dew Temp Wind Precip Traffic Updated
Sensor [A]: Atmospheric - 73.6 - - 66.4 3.7 / N Rain / 0.0 - 5/29/2015 11:50:14 PM
Sensor [0]: SR-578 SB Maumee River Dry - 78.4 78.6 - - - - 5/29/2015 11:50:14 PM
Sensor [1]: SR-578 SB Dry - 77.2 - - - - - 5/29/2015 11:50:14 PM
139-I-80 & I-475 Lucas ***Under Construction*** (582012) Status Air Temp Sfc Temp Sub Temp Dew Temp Wind Precip Traffic Updated
Sensor [A]: Atmospheric - 72.1 - - 71.6 1.9 / SW - - 10/3/2013 12:40:42 PM
Sensor [0]: I-475 NB Deck Dry - 77.0 - - - - - 10/3/2013 12:40:42 PM
Sensor [1]: I-475 SB Approach Error - - - - - - - 10/3/2013 12:40:42 PM
140-IR 475 @ US 23 Split ***Under Construction*** (582013) Status Air Temp Sfc Temp Sub Temp Dew Temp Wind Precip Traffic Updated
Sensor [A]: Atmospheric - 32.5 - - 18.7 5.0 / Unknown - - 5/29/2015 11:50:34 PM
141-IR 75 @ SLM 4.9 475 Split (582014) Status Air Temp Sfc Temp Sub Temp Dew Temp Wind Precip Traffic Updated
Sensor [A]: Atmospheric - 75.9 - - 72.3 5.6 / S - - 5/29/2015 11:50:09 PM
142 - I-280 @ Veterans Glass City Skyway (VGCS) (582016) Status Air Temp Sfc Temp Sub Temp Dew Temp Wind Precip Traffic Updated
Sensor [A]: Atmospheric - 75.6 - - 64.4 9.3 / S - - 5/29/2015 11:50:10 PM
Sensor [1]: NB I-280 Center Lane Dry - 75.4 - - - - 30 / 47.2 5/29/2015 11:50:10 PM
Sensor [4]: SB I-280 Center Lane Dry - 73.4 - - - - 19 / 57.2 5/29/2015 11:50:10 PM
143-SR 2 @ MP 31.8 Lucas (582017) Status Air Temp Sfc Temp Sub Temp Dew Temp Wind Precip Traffic Updated
Sensor [A]: Atmospheric - 64.6 - - 56.7 / Unknown - - 5/29/2015 1:30:14 AM
144-IR 75 & Eagleville Rd. (582018) Status Air Temp Sfc Temp Sub Temp Dew Temp Wind Precip Traffic Updated
Sensor [A]: Atmospheric - 76.6 - - 63.0 4.3 / NE - - 8/18/2014 12:00:17 PM
Sensor [0]: I-75 NB Deck Error - - - - - - - 8/18/2014 12:00:17 PM
Sensor [1]: I-75 SB Deck Error - - - - - - - 8/18/2014 12:00:17 PM
145-IR 75 @ SLM 18.36 Wood (582019) Status Air Temp Sfc Temp Sub Temp Dew Temp Wind Precip Traffic Updated
Sensor [A]: Atmospheric - 80.8 - - 54.1 2.5 / E - - 8/7/2014 1:00:20 PM
Sensor [0]: I-75 NB Approach Error - 112.6 - - - - - 8/7/2014 1:00:20 PM
Sensor [1]: I-75 SB Deck Dry - 108.3 - - - - - 8/7/2014 1:00:20 PM
146-I-75 @ I-475 Wood ***Under Construction*** (582020) Status Air Temp Sfc Temp Sub Temp Dew Temp Wind Precip Traffic Updated
Sensor [A]: Atmospheric - 73.8 - - 51.8 6.8 / S - - 5/29/2015 11:50:13 PM
147-I-75 @ I-80 Wood County (582021) Status Air Temp Sfc Temp Sub Temp Dew Temp Wind Precip Traffic Updated
Sensor [A]: Atmospheric - 74.3 - - 72.1 6.8 / S - - 5/29/2015 11:50:16 PM
Sensor [0]: I-75 NB Deck Trace Moisture - 77.0 - - - - - 5/29/2015 11:50:16 PM
Sensor [1]: I-75 SB Deck Error - - - - - - - 5/29/2015 11:50:16 PM
148-US-6 @ Rt. 23 (582022) Status Air Temp Sfc Temp Sub Temp Dew Temp Wind Precip Traffic Updated
Sensor [A]: Atmospheric - 75.6 - - 67.1 5.6 / S - - 5/29/2015 11:50:18 PM
Sensor [0]: US-6 EB Dry - 78.8 - - - - 0 / 9.9 5/29/2015 11:50:18 PM
Sensor [1]: US-23 NB Dry - 80.6 - - - - 0 / 9.9 5/29/2015 11:50:18 PM
149-US-20 @ Lemoyne Rd. (582023) Status Air Temp Sfc Temp Sub Temp Dew Temp Wind Precip Traffic Updated
Sensor [A]: Atmospheric - 82.4 - - 75.7 1.2 / S - - 5/29/2015 11:50:19 PM
Sensor [0]: US-20 EB Departure Dry - 75.2 - - - - 2 / 60.9 5/29/2015 11:50:19 PM
150-IR 280 @ SR 420 and CR 308 Libbey Rd (582024) Status Air Temp Sfc Temp Sub Temp Dew Temp Wind Precip Traffic Updated
Sensor [A]: Atmospheric - 75.9 - - 64.6 7.5 / SE - - 5/29/2015 11:50:21 PM
151-SR 2 @ Portage River Bridge (582025) Status Air Temp Sfc Temp Sub Temp Dew Temp Wind Precip Traffic Updated
Sensor [A]: Atmospheric - 74.8 - - 64.4 3.1 / S - - 5/29/2015 11:50:22 PM
Sensor [0]: SR-2 EB Departure Dry - 78.6 78.6 - - - - 5/29/2015 11:50:22 PM
Sensor [1]: SR-2 WB Deck Error - - - - - - - 5/29/2015 11:50:22 PM
152-SR-2@28.5 Bay Br. (582026) Status Air Temp Sfc Temp Sub Temp Dew Temp Wind Precip Traffic Updated
Sensor [A]: Atmospheric - 76.5 - - 76.5 11.2 / E - - 5/29/2015 11:50:23 PM
Sensor [3]: SR2 EB Driving Lane - Bridge Deck Dry - 74.3 - - - - 0 / 0.0 5/29/2015 11:50:23 PM
153-US-20 @ Sugar Creek (582027) Status Air Temp Sfc Temp Sub Temp Dew Temp Wind Precip Traffic Updated
Sensor [A]: Atmospheric - 73.8 - - 66.2 5.0 / SE - - 5/29/2015 11:50:07 PM
Sensor [0]: US-20 EB Driving Dry - 74.3 79.7 - - - 7 / 55.3 5/29/2015 11:50:07 PM
Sensor [1]: US-20 WB Passing Dry - 74.3 - - - - 0 / 0.0 5/29/2015 11:50:07 PM
Sensor [2]: US-20 EB Driving BridgeDeck Dry - 73.4 - - - - 0 / 0.0 5/29/2015 11:50:07 PM
154-US-6 @ Sandusky River Br (582028) Status Air Temp Sfc Temp Sub Temp Dew Temp Wind Precip Traffic Updated
Sensor [A]: Atmospheric - 75.2 - - 71.4 3.1 / S - - 5/29/2015 11:50:09 PM
Sensor [0]: US-6 EB Approach Dry - 78.8 - - - - - 5/29/2015 11:50:09 PM
Sensor [1]: US-6 WB Deck Dry - 80.6 - - - - - 5/29/2015 11:50:09 PM
155-US 6 @ Pickeral Creek (582029) Status Air Temp Sfc Temp Sub Temp Dew Temp Wind Precip Traffic Updated
Sensor [A]: Atmospheric - 56.5 - - 51.3 6.8 / S - - 5/29/2015 11:50:12 PM
Sensor [0]: US-6 WB Departure Error - - - - - - - 5/29/2015 11:50:12 PM
Sensor [1]: US-6 WB Deck Error - 62.2 - - - - - 5/29/2015 11:50:12 PM
156-CR 296 & US 20 MP 31.0 (582030) Status Air Temp Sfc Temp Sub Temp Dew Temp Wind Precip Traffic Updated
Sensor [A]: Atmospheric - 75.0 - - 69.4 5.6 / S - - 5/29/2015 11:50:14 PM
Sensor [0]: US-20 WB Dry - 78.8 81.1 - - - - 5/29/2015 11:50:14 PM
157-US 23 @ MP 5.5 Seneca (582031) Status Air Temp Sfc Temp Sub Temp Dew Temp Wind Precip Traffic Updated
Sensor [A]: Atmospheric - 73.9 - - 63.9 5.6 / SE - - 5/29/2015 11:50:16 PM
Sensor [0]: US-23 NB Dry - 78.3 - - - - - 5/29/2015 11:50:16 PM
158-SR 12 @ Mp 7.0 Seneca (582032) Status Air Temp Sfc Temp Sub Temp Dew Temp Wind Precip Traffic Updated
Sensor [A]: Atmospheric - 71.6 - - 66.4 6.2 / SE - - 5/29/2015 11:50:17 PM
Sensor [0]: SR-12 WB Dry - 73.4 - - - - - 5/29/2015 11:50:17 PM
159-US 224 @ SR 53 Seneca (582033) Status Air Temp Sfc Temp Sub Temp Dew Temp Wind Precip Traffic Updated
Sensor [A]: Atmospheric - 75.9 - - 67.1 2.5 / S - - 5/29/2015 11:50:19 PM
Sensor [0]: SR-224 EB Bridge Deck Dry - 77.0 - - - - - 5/29/2015 11:50:19 PM
Sensor [1]: US-224 EB Approach Dry - 77.0 - - - - - 5/29/2015 11:50:19 PM
160-SR 4 @ Aichholz Ditch near CR 8 (MM 2.4) (582034) Status Air Temp Sfc Temp Sub Temp Dew Temp Wind Precip Traffic Updated
Sensor [A]: Atmospheric - 74.3 - - 59.5 11.2 / N - - 5/29/2015 11:50:20 PM
Sensor [0]: SR-4 SB Deck Dry - 80.6 - - - - 0 / 9.9 5/29/2015 11:50:20 PM
Sensor [1]: SR-4 SB Departure Dry - 80.6 64.0 - - - 0 / 9.9 5/29/2015 11:50:20 PM
161-I-90 @ SR-252 (562000) Status Air Temp Sfc Temp Sub Temp Dew Temp Wind Precip Traffic Updated
Sensor [A]: Atmospheric - 77.4 - - 68.4 7.5 / SW - - 5/29/2015 11:50:04 PM
Sensor [0]: SR-252 NB RL over I-90 Dry - 77.9 - - - - - 5/29/2015 11:50:04 PM
Sensor [1]: I-90 WB N2 Lane Dry - 80.6 - - - - - 5/29/2015 11:50:04 PM
162-I-90 @ Abbey Rd. (562001) Status Air Temp Sfc Temp Sub Temp Dew Temp Wind Precip Traffic Updated
Sensor [A]: Atmospheric - - - - - / Unknown - - -
Sensor [0]: I-90 EB N3 Lane Wet - 74.7 82.2 - - - - 8/21/2011 12:10:14 AM
Sensor [2]: I-90 WB N3 Lane Bridge Wet - 71.8 - - - - - 8/21/2011 12:10:14 AM
163-I-90 @ E. 140th (562002) Status Air Temp Sfc Temp Sub Temp Dew Temp Wind Precip Traffic Updated
Sensor [A]: Atmospheric - 77.9 - - 71.8 - - - 5/29/2015 11:50:24 PM
Sensor [0]: I-90 WB N3 Lane Dry - 82.4 - - - - - 5/29/2015 11:50:24 PM
Sensor [1]: I-90 WB N3 Lane Bridge Dry - 81.3 - - - - - 5/29/2015 11:50:24 PM
Sensor [2]: I-90 EB N3 Lane Bridge Dry - 78.8 - - - - - 5/29/2015 11:50:24 PM
164-I-271 @ I-90 (562003) Status Air Temp Sfc Temp Sub Temp Dew Temp Wind Precip Traffic Updated
Sensor [A]: Atmospheric - 80.1 - - 79.9 3.7 / S - - 5/29/2015 11:50:25 PM
Sensor [0]: I-271 NB TG I-90 EB Dry - 78.1 - - - - - 5/29/2015 11:50:25 PM
Sensor [1]: I-90 EB N2 Lane Bridge Dry - 82.4 - - - - - 5/29/2015 11:50:25 PM
Sensor [2]: I-271 NB TG I-90 WB Bridge Dry - 79.5 - - - - - 5/29/2015 11:50:25 PM
Sensor [3]: I-271 NB TG I-90 WB Dry - 78.1 86.0 - - - - 5/29/2015 11:50:25 PM
165-I-480 @ SR-10 (562004) Status Air Temp Sfc Temp Sub Temp Dew Temp Wind Precip Traffic Updated
Sensor [A]: Atmospheric - 75.7 - - 70.7 4.3 / S - - 5/29/2015 11:50:25 PM
Sensor [0]: I-480 EB N2 Lane Bridge Dry - 79.7 - - - - - 5/29/2015 11:50:25 PM
Sensor [1]: I-480 WB N2 Lane Bridge Error - - - - - - - 5/29/2015 11:50:25 PM
Sensor [2]: I-480 EB N1 Lane Departure Dry - 80.6 - - - - - 5/29/2015 11:50:25 PM
166-I-71 @ Snow Rd. (562005) Status Air Temp Sfc Temp Sub Temp Dew Temp Wind Precip Traffic Updated
Sensor [A]: Atmospheric - 77.0 - - 70.9 7.5 / SW - - 5/29/2015 11:50:27 PM
Sensor [0]: I-71 NB N3 Lane Bridge Dry - 80.4 - - - - - 5/29/2015 11:50:27 PM
Sensor [1]: I-71 SB N3 Lane Bridge Dry - 80.1 - - - - - 5/29/2015 11:50:27 PM
Sensor [2]: I-71 NB N1 Lane Departure Dry - 80.6 - - - - - 5/29/2015 11:50:27 PM
167-I-77 @ I-480 (562006) Status Air Temp Sfc Temp Sub Temp Dew Temp Wind Precip Traffic Updated
Sensor [A]: Atmospheric - 74.3 - - 69.8 - - - 5/29/2015 11:50:28 PM
Sensor [0]: I-77 NB N2L Br @ SR-17 Error - - - - - - - 5/29/2015 11:50:28 PM
Sensor [1]: I-77 SB N2L Br @ SR-17 Error - - - - - - - 5/29/2015 11:50:28 PM
Sensor [3]: I-77 NB RL Br over I-480 Dry - 80.6 - - - - - 5/29/2015 11:50:28 PM
168-I-480 N @ Miles Rd. (562007) Status Air Temp Sfc Temp Sub Temp Dew Temp Wind Precip Traffic Updated
Sensor [A]: Atmospheric - 76.5 - - 66.6 5.0 / NE - - 5/29/2015 11:00:04 PM
Sensor [0]: I-480 N WB N2 Lane Dry - 84.2 - - - - - 5/29/2015 11:00:04 PM
Sensor [1]: I-480 N WB N2 Lane Br Dry - 79.3 - - - - - 5/29/2015 11:00:04 PM
Sensor [2]: I-480 EB N2 Lane Br Dry - 82.4 - - - - - 5/29/2015 11:00:04 PM
169-I-271 @ US-322 (562008) Status Air Temp Sfc Temp Sub Temp Dew Temp Wind Precip Traffic Updated
Sensor [A]: Atmospheric - 75.2 - - 70.5 8.1 / SW - - 5/29/2015 11:50:21 PM
Sensor [0]: I-271 SB N2 Lane Br Dry - 82.4 - - - - - 5/29/2015 11:50:21 PM
Sensor [1]: I-271 SB N2 Lane Dry - 80.6 - - - - - 5/29/2015 11:50:21 PM
Sensor [2]: I-271 NB N2 Lane Br Dry - 82.4 - - - - - 5/29/2015 11:50:21 PM
Sensor [3]: I-271 NB N2 Lane Dry - 76.6 - - - - - 5/29/2015 11:50:21 PM
170-I-71 @ Drake Rd. (562009) Status Air Temp Sfc Temp Sub Temp Dew Temp Wind Precip Traffic Updated
Sensor [A]: Atmospheric - 75.2 - - 68.0 8.7 / S - - 5/29/2015 11:50:22 PM
Sensor [0]: I-71 NB N2 Lane Dry - 78.1 81.7 - - - - 5/29/2015 11:50:22 PM
Sensor [1]: I-71 NB N2 Lane Br Dry - 79.5 - - - - - 5/29/2015 11:50:22 PM
Sensor [2]: I-71 SB N2 Lane Br Dry - 77.7 - - - - - 5/29/2015 11:50:22 PM
171-I-77 @ SR-82 (562010) Status Air Temp Sfc Temp Sub Temp Dew Temp Wind Precip Traffic Updated
Sensor [A]: Atmospheric - 74.8 - - 70.3 3.7 / SW - - 5/29/2015 11:50:23 PM
Sensor [0]: I-77 NB N2 Lane Br Dry - 77.9 - - - - - 5/29/2015 11:50:23 PM
Sensor [1]: I-77 SB N2 Lane Br Dry - 76.1 - - - - - 5/29/2015 11:50:23 PM
172-US-422 @ Chagrin Blvd. (562011) Status Air Temp Sfc Temp Sub Temp Dew Temp Wind Precip Traffic Updated
Sensor [A]: Atmospheric - 69.1 - - 64.8 - - - 5/29/2015 11:50:24 PM
Sensor [0]: US-422 WB N2 Lane Error - - - - - - - 5/29/2015 11:50:24 PM
Sensor [1]: US-422 WB N2 Lane Br Dry - 78.8 - - - - - 5/29/2015 11:50:24 PM
Sensor [2]: US-422 EB N2 Lane Br Dry - 75.9 - - - - - 5/29/2015 11:50:24 PM
173-US-422 @ SR-44 (562012) Status Air Temp Sfc Temp Sub Temp Dew Temp Wind Precip Traffic Updated
Sensor [A]: Atmospheric - 70.2 - - 65.8 1.2 / S - - 5/29/2015 11:50:25 PM
Sensor [0]: US-422 EB N2 Lane Bridge Dry - 82.4 - - - - - 5/29/2015 11:50:25 PM
174- SR-528 @SR-87 (562013) Status Air Temp Sfc Temp Sub Temp Dew Temp Wind Precip Traffic Updated
Sensor [A]: Atmospheric - 73.4 - - 73.2 6.8 / SW - - 5/29/2015 11:50:03 PM
Sensor [0]: SR528 NB Dry - 82.4 - - - - - 5/29/2015 11:50:03 PM
175-SR-44 @ Mentor Rd. (562014) Status Air Temp Sfc Temp Sub Temp Dew Temp Wind Precip Traffic Updated
Sensor [A]: Atmospheric - 72.9 - - 71.2 5.0 / S - - 5/29/2015 11:50:05 PM
Sensor [0]: SR44 NB Dry - 78.8 80.6 - - - - 5/29/2015 11:50:05 PM
176-SR-528 @ SR-166 (562015) Status Air Temp Sfc Temp Sub Temp Dew Temp Wind Precip Traffic Updated
Sensor [A]: Atmospheric - 74.8 - - 68.4 9.9 / NW - - 5/29/2015 11:50:06 PM
Sensor [1]: SR-166 WB W of SR-528 Dry - 75.2 - - - - - 5/29/2015 11:50:06 PM
177-I-90 @ Hermitage Rd. (562016) Status Air Temp Sfc Temp Sub Temp Dew Temp Wind Precip Traffic Updated
Sensor [A]: Atmospheric - 74.8 - - 72.9 1.9 / SE - - 5/29/2015 11:50:07 PM
Sensor [0]: I-90 WB N2 Lane Br Dry - 80.6 - - - - - 5/29/2015 11:50:07 PM
Sensor [1]: I-90 EB N2 Lane Br Dry - 77.0 - - - - - 5/29/2015 11:50:07 PM
Sensor [2]: I90 EB Driving Lane Dry - 78.8 - - - - - 5/29/2015 11:50:07 PM
178-I-90 @ Paine Rd. (562017) Status Air Temp Sfc Temp Sub Temp Dew Temp Wind Precip Traffic Updated
Sensor [A]: Atmospheric - 75.0 - - 71.1 1.9 / S - - 5/29/2015 11:50:08 PM
Sensor [0]: I-90 WB N2 Lane Br Dry - 78.8 - - - - - 5/29/2015 11:50:08 PM
Sensor [1]: I-90 EB N2 Lane Br Dry - 80.6 - - - - - 5/29/2015 11:50:08 PM
Sensor [2]: I90 EB Driving Lane Dry - 78.8 80.6 - - - - 5/29/2015 11:50:08 PM
179-US-20 @ Parmly Rd. (562018) Status Air Temp Sfc Temp Sub Temp Dew Temp Wind Precip Traffic Updated
Sensor [A]: Atmospheric - 76.3 - - 70.7 3.1 / S - - 5/29/2015 11:50:10 PM
Sensor [0]: US-20 WB N2 Lane Dry - 75.2 - - - - - 5/29/2015 11:50:10 PM
180-I270 @ US33 (38015) Status Air Temp Sfc Temp Sub Temp Dew Temp Wind Precip Traffic Updated
Sensor [A]: Atmospheric - 74.1 - - - 5.6 / SW - - 5/29/2015 11:50:05 PM
181-US 32 @ CR 16 Union Hill Rd (MM 24.8) (200180) Status Air Temp Sfc Temp Sub Temp Dew Temp Wind Precip Traffic Updated
Sensor [A]: Atmospheric - 68.9 - - 68.0 1.2 / N - - 5/29/2015 11:51:14 PM
Sensor [0]: US32 EB Driving Dry - 80.6 - - - - 1 / 9.9 5/29/2015 11:51:14 PM
Sensor [1]: US32 WB Driving Dry - 77.0 - - - - 4 / 9.9 5/29/2015 11:51:14 PM
182-I71 @ SR665 Grove City Outpost (200181) Status Air Temp Sfc Temp Sub Temp Dew Temp Wind Precip Traffic Updated
Sensor [A]: Atmospheric - 72.3 - - 66.7 1.9 / S - - 5/29/2015 11:51:57 PM
183-US30 @ SR68 (200182) Status Air Temp Sfc Temp Sub Temp Dew Temp Wind Precip Traffic Updated
Sensor [A]: Atmospheric - 72.1 - - 65.8 4.3 / S - - 5/29/2015 11:52:26 PM
Sensor [0]: US30 EB Driving Dry - 73.4 - - - - - 5/29/2015 11:52:26 PM
Sensor [1]: US30 WB Driving Bridgedeck Wet - 78.8 - - - - - 5/29/2015 11:52:26 PM
184-IR 71 @ Stewart Rd (MM 10) (80000) Status Air Temp Sfc Temp Sub Temp Dew Temp Wind Precip Traffic Updated
Sensor [A]: Atmospheric - 74.3 - - 67.5 2.5 / S - - 5/29/2015 11:50:26 PM
Sensor [0]: I71 NB Driving Dry - 82.4 - - - - - 5/29/2015 11:50:26 PM
185 - SR235 @ SR67 (80001) Status Air Temp Sfc Temp Sub Temp Dew Temp Wind Precip Traffic Updated
Sensor [A]: Atmospheric - 73.9 - - 70.7 3.7 / W - - 5/29/2015 11:50:28 PM
Sensor [0]: SR-67 EB Dry - 86.0 - - - - - 5/29/2015 11:50:28 PM
186-SR49 @ SR81 (200185) Status Air Temp Sfc Temp Sub Temp Dew Temp Wind Precip Traffic Updated
Sensor [A]: Atmospheric - 73.6 - - 64.6 3.1 / S - - 5/29/2015 11:52:31 PM
Sensor [0]: SR-81 EB Approach Dry - 75.2 - - - - - 5/29/2015 11:52:31 PM
Sensor [1]: SR-81 EB Bridgedeck Dry - 84.2 - - - - - 5/29/2015 11:52:31 PM
187-SR15 @ SR613 (200186) Status Air Temp Sfc Temp Sub Temp Dew Temp Wind Precip Traffic Updated
Sensor [A]: Atmospheric - 72.0 - - 65.5 5.6 / S - - 5/29/2015 11:50:35 PM
Sensor [0]: SR15 NB Lane Dry - 78.4 - - - - - 5/29/2015 11:50:35 PM
188-SR2 @ INDIANA LINE (200187) Status Air Temp Sfc Temp Sub Temp Dew Temp Wind Precip Traffic Updated
Sensor [A]: Atmospheric - 71.6 - - 64.8 6.2 / S - - 5/29/2015 11:50:16 PM
Sensor [0]: SR2 EB Lane Dry - 77.9 - - - - - 5/29/2015 11:50:16 PM